Time;durP1;ratioP1;P1;durP2;ratioP2;P2;SDS_P1;SDS_P2;PMS_P1;PMS_P2;Temp;Humidity;BMP_temperature;BMP_pressure;BME280_temperature;BME280_humidity;BME280_pressure;Samples;Min_cycle;Max_cycle;Signal;HPM_P1;HPM_P2
2022/01/21 00:01:06;;;;;;;9.85;1.40;;;;;;;22.30;53.16;100028.97;7318042;19;129279;-75
2022/01/21 00:03:32;;;;;;;7.73;1.13;;;;;;;22.27;53.22;100037.09;7327618;19;128888;-75
2022/01/21 00:05:58;;;;;;;15.87;1.80;;;;;;;22.24;53.73;100031.28;7329441;19;128832;-72
2022/01/21 00:08:23;;;;;;;22.00;2.55;;;;;;;22.18;53.26;100030.00;7317372;19;132442;-74
2022/01/21 00:10:50;;;;;;;14.00;1.65;;;;;;;22.16;53.97;100028.50;7317773;19;146230;-73
2022/01/21 00:13:22;;;;;;;15.65;2.05;;;;;;;22.16;53.70;100028.50;7318505;19;128883;-74
2022/01/21 00:15:47;;;;;;;24.35;2.85;;;;;;;22.09;54.08;100045.69;7315805;19;129102;-75
2022/01/21 00:18:13;;;;;;;78.15;8.60;;;;;;;22.04;54.18;100051.34;7310155;19;132052;-74
2022/01/21 00:31:34;;;;;;;25.05;2.40;;;;;;;22.42;52.72;100069.81;7317726;19;129935;-73
2022/01/21 00:34:00;;;;;;;13.98;1.45;;;;;;;22.55;53.04;100078.28;7316144;19;154236;-71
2022/01/21 00:36:25;;;;;;;15.27;1.60;;;;;;;22.68;52.37;100075.41;7316560;19;129862;-74
2022/01/21 00:38:53;;;;;;;18.80;1.92;;;;;;;22.81;51.86;100068.97;7316573;19;157152;-74
2022/01/21 00:41:22;;;;;;;8.20;1.08;;;;;;;22.89;52.30;100071.72;7317603;19;129255;-71
2022/01/21 00:43:47;;;;;;;14.05;1.70;;;;;;;23.02;51.21;100080.16;7316458;19;128803;-71
2022/01/21 00:46:13;;;;;;;15.10;1.77;;;;;;;23.12;51.36;100072.31;7315485;19;158167;-73
2022/01/21 00:48:39;;;;;;;11.90;1.37;;;;;;;23.22;50.64;100088.88;7315444;19;129375;-73
2022/01/21 00:51:04;;;;;;;25.52;2.92;;;;;;;23.22;50.58;100088.88;7314802;19;129561;-73
2022/01/21 00:53:30;;;;;;;63.05;5.60;;;;;;;23.21;51.43;100087.22;7316606;19;129136;-71
2022/01/21 00:55:55;;;;;;;6.97;1.50;;;;;;;23.20;50.75;100096.88;7315753;19;130971;-73
2022/01/21 00:58:20;;;;;;;15.48;1.83;;;;;;;23.11;51.29;100102.09;7314494;19;158352;-73
2022/01/21 01:00:45;;;;;;;13.18;1.60;;;;;;;23.06;51.64;100109.56;7314771;19;154812;-73
2022/01/21 01:03:13;;;;;;;17.90;1.83;;;;;;;22.94;51.75;100105.44;7319321;19;129212;-73
2022/01/21 01:05:38;;;;;;;16.45;1.85;;;;;;;22.78;52.60;100110.34;7316281;19;129437;-71
2022/01/21 01:08:05;;;;;;;18.00;2.15;;;;;;;22.74;52.16;100120.25;7313852;19;157968;-73
2022/01/21 01:10:48;;;;;;;16.73;1.88;;;;;;;22.53;52.51;100100.34;7317834;19;128995;-72
2022/01/21 01:21:23;;;;;;;37.53;3.37;;;;;;;22.24;54.18;100128.19;7317884;19;129796;-72
2022/01/21 01:29:18;;;;;;;18.60;1.98;;;;;;;22.10;54.17;100144.25;7316889;19;129544;-74
2022/01/21 01:31:44;;;;;;;10.30;1.10;;;;;;;21.97;54.15;100123.50;7316763;19;128809;-73
2022/01/21 01:34:09;;;;;;;22.67;2.22;;;;;;;22.11;54.27;100135.44;7316634;19;129178;-71
2022/01/21 01:36:35;;;;;;;18.75;1.88;;;;;;;22.21;54.10;100138.94;7314463;19;129568;-73
2022/01/21 01:41:52;;;;;;;18.88;1.83;;;;;;;22.41;53.10;100132.81;7316520;19;128846;-74
2022/01/21 01:49:46;;;;;;;10.43;1.23;;;;;;;22.82;52.52;100138.78;7316149;19;129687;-71
2022/01/21 01:52:14;;;;;;;15.23;1.65;;;;;;;22.90;51.59;100122.38;7315835;19;154399;-73
2022/01/21 01:54:47;;;;;;;5.18;0.70;;;;;;;23.07;51.54;100142.72;7318086;19;129358;-71
2022/01/21 01:57:13;;;;;;;12.20;1.30;;;;;;;23.10;51.42;100143.28;7330793;19;129495;-76
2022/01/21 01:59:38;;;;;;;26.67;2.70;;;;;;;23.19;51.45;100149.47;7316889;19;129568;-74
2022/01/21 02:02:11;;;;;;;20.30;2.00;;;;;;;23.13;51.32;100142.16;7314895;19;147416;-71
2022/01/21 02:04:37;;;;;;;20.95;2.13;;;;;;;23.13;51.39;100143.00;7315157;19;128917;-72
2022/01/21 02:07:03;;;;;;;17.08;1.65;;;;;;;23.08;51.53;100144.34;7315197;19;131354;-71
2022/01/21 02:09:29;;;;;;;16.67;1.67;;;;;;;23.03;51.47;100157.03;7316094;19;129694;-73
2022/01/21 02:11:55;;;;;;;16.67;1.60;;;;;;;22.92;52.25;100154.53;7314841;19;129294;-71
2022/01/21 02:14:25;;;;;;;14.73;1.60;;;;;;;22.82;52.36;100153.69;7314992;19;128854;-73
2022/01/21 02:22:25;;;;;;;66.82;4.93;;;;;;;22.47;53.73;100146.22;7316030;19;130570;-74
2022/01/21 02:24:52;;;;;;;82.00;6.43;;;;;;;22.36;53.33;100140.25;7312128;19;129198;-72
2022/01/21 02:27:18;;;;;;;11.75;1.25;;;;;;;22.29;54.19;100144.34;7308543;19;130139;-71
2022/01/21 02:29:49;;;;;;;28.70;2.90;;;;;;;22.22;54.08;100153.69;7313822;19;130058;-71
2022/01/21 02:32:16;;;;;;;18.73;1.92;;;;;;;22.18;54.57;100153.09;7311135;19;129004;-74
2022/01/21 02:34:42;;;;;;;26.25;2.33;;;;;;;22.14;54.71;100156.13;7315075;19;128920;-73
2022/01/21 02:37:09;;;;;;;13.53;1.33;;;;;;;22.12;54.96;100158.03;7311290;19;132702;-74
2022/01/21 02:39:34;;;;;;;18.27;1.70;;;;;;;22.10;54.60;100166.03;7314172;19;129443;-72
2022/01/21 02:42:00;;;;;;;67.47;5.30;;;;;;;22.12;54.45;100163.25;7314055;19;129335;-71
2022/01/21 02:44:25;;;;;;;9.05;1.00;;;;;;;22.25;54.39;100166.50;7310926;19;136662;-74
2022/01/21 02:46:55;;;;;;;24.10;2.58;;;;;;;22.30;54.11;100173.03;7312016;19;129812;-73
2022/01/21 02:49:21;;;;;;;3.05;0.57;;;;;;;22.45;53.75;100163.03;7314204;19;129874;-74
2022/01/21 02:51:46;;;;;;;18.85;1.88;;;;;;;22.57;53.20;100164.63;7312940;19;154417;-73
2022/01/21 02:54:11;;;;;;;7.63;1.05;;;;;;;22.71;52.45;100172.16;7312594;19;155332;-74
2022/01/21 02:56:38;;;;;;;19.95;1.77;;;;;;;22.78;52.84;100168.84;7311889;19;159219;-72
2022/01/21 02:59:06;;;;;;;15.20;1.35;;;;;;;22.92;52.10;100167.66;7314000;19;131600;-73
2022/01/21 03:01:34;;;;;;;15.27;1.55;;;;;;;22.98;52.07;100175.81;7313476;19;129272;-74
2022/01/21 03:03:59;;;;;;;18.10;1.48;;;;;;;23.00;51.38;100157.31;7314540;19;128956;-75
2022/01/21 03:06:25;;;;;;;19.58;1.63;;;;;;;23.15;51.81;100171.72;7310716;19;132353;-75
2022/01/21 03:08:53;;;;;;;21.67;2.05;;;;;;;23.20;51.33;100164.25;7311315;19;130418;-71
2022/01/21 03:11:19;;;;;;;14.48;1.52;;;;;;;23.26;51.53;100168.94;7313627;19;129060;-71
2022/01/21 03:13:45;;;;;;;23.67;2.28;;;;;;;23.09;51.60;100161.72;7312689;19;128928;-73
2022/01/21 03:16:11;;;;;;;11.02;1.17;;;;;;;23.06;51.91;100164.63;7310822;19;132702;-73
2022/01/21 03:18:36;;;;;;;17.83;1.58;;;;;;;23.00;51.60;100173.88;7315916;19;130534;-72
2022/01/21 03:21:01;;;;;;;21.92;2.00;;;;;;;22.89;52.62;100167.94;7319687;19;129150;-74
2022/01/21 03:23:29;;;;;;;19.23;2.03;;;;;;;22.82;52.43;100164.19;7319078;19;153928;-74
2022/01/21 03:25:54;;;;;;;13.68;1.42;;;;;;;22.71;52.61;100166.91;7317490;19;129040;-71
2022/01/21 03:28:19;;;;;;;13.95;1.33;;;;;;;22.59;53.32;100173.19;7317279;19;159466;-75
2022/01/21 03:30:45;;;;;;;22.40;2.45;;;;;;;22.48;53.68;100175.84;7319768;19;129103;-72
2022/01/21 03:33:10;;;;;;;23.10;2.00;;;;;;;22.41;53.75;100180.78;7320282;19;128569;-72
2022/01/21 03:35:36;;;;;;;25.13;2.45;;;;;;;22.34;53.64;100184.06;7318316;19;147344;-70
2022/01/21 03:38:02;;;;;;;19.05;1.63;;;;;;;22.18;54.35;100166.19;7320831;19;129727;-73
2022/01/21 03:40:27;;;;;;;19.13;1.53;;;;;;;22.20;54.25;100182.63;7322122;19;128837;-72
2022/01/21 03:42:53;;;;;;;22.40;2.08;;;;;;;22.16;54.40;100183.00;7322098;19;130206;-71
2022/01/21 03:45:18;;;;;;;15.38;1.60;;;;;;;22.11;54.42;100182.56;7319222;19;148610;-72
2022/01/21 03:47:45;;;;;;;0.55;0.30;;;;;;;22.15;54.31;100187.41;7320253;19;147965;-73
2022/01/21 03:50:32;;;;;;;11.88;1.20;;;;;;;22.11;54.42;100190.44;7334006;19;129043;-73
2022/01/21 03:52:58;;;;;;;19.33;1.80;;;;;;;22.26;54.61;100197.84;7319835;19;129321;-74
2022/01/21 03:55:24;;;;;;;29.02;2.65;;;;;;;22.52;53.57;100193.00;7316307;19;129553;-74
2022/01/21 03:57:49;;;;;;;32.25;2.80;;;;;;;22.89;52.66;100200.19;7315952;19;158925;-74
2022/01/21 04:00:25;;;;;;;15.98;1.42;;;;;;;23.24;51.10;100203.19;7315003;19;129866;-71
2022/01/21 04:02:51;;;;;;;21.90;1.92;;;;;;;23.54;50.05;100189.16;7317715;19;129532;-73
2022/01/21 04:05:17;;;;;;;39.53;3.85;;;;;;;23.86;49.70;100208.09;7313665;19;132143;-72
2022/01/21 04:07:43;;;;;;;16.58;1.75;;;;;;;24.10;49.11;100211.13;7316967;19;129600;-77
2022/01/21 04:10:08;;;;;;;33.72;3.00;;;;;;;24.29;48.96;100218.16;7316478;19;132039;-71
2022/01/21 04:12:34;;;;;;;17.70;1.75;;;;;;;24.53;48.05;100213.25;7319583;19;131134;-71
2022/01/21 04:14:59;;;;;;;20.85;1.85;;;;;;;24.52;48.13;100208.13;7317460;19;129715;-74
2022/01/21 04:17:25;;;;;;;18.75;1.80;;;;;;;24.68;47.65;100221.50;7317206;19;130748;-72
2022/01/21 04:19:51;;;;;;;14.83;1.40;;;;;;;24.78;47.72;100214.41;7318735;19;128870;-74
2022/01/21 04:22:16;;;;;;;9.95;0.88;;;;;;;24.82;46.99;100216.63;7316113;19;154700;-73
2022/01/21 04:24:44;;;;;;;16.70;1.63;;;;;;;24.86;47.29;100223.25;7314721;19;157804;-72
2022/01/21 04:27:10;;;;;;;22.10;1.85;;;;;;;24.95;47.12;100232.06;7311143;19;130578;-74
2022/01/21 04:29:35;;;;;;;16.95;1.75;;;;;;;24.90;47.25;100229.03;7318061;19;128753;-74
2022/01/21 04:32:01;;;;;;;66.53;5.93;;;;;;;24.88;46.86;100229.19;7311588;19;131309;-72
2022/01/21 04:34:26;;;;;;;18.23;1.43;;;;;;;24.75;47.66;100214.72;7321312;19;129053;-72
2022/01/21 04:36:51;;;;;;;49.85;4.18;;;;;;;24.88;46.93;100231.81;7313891;19;132088;-72
2022/01/21 04:39:24;;;;;;;14.47;1.20;;;;;;;24.87;47.17;100239.88;7319718;19;129044;-71
2022/01/21 04:47:18;;;;;;;18.33;1.80;;;;;;;24.64;48.11;100238.53;7319643;19;129280;-71
2022/01/21 04:49:45;;;;;;;25.67;2.03;;;;;;;24.56;48.44;100236.59;7340424;19;128885;-71
2022/01/21 04:52:11;;;;;;;21.83;1.92;;;;;;;24.48;48.51;100240.94;7334139;19;129734;-71
2022/01/21 04:54:36;;;;;;;18.92;1.70;;;;;;;24.29;48.62;100226.88;7326559;19;130902;-70
2022/01/21 04:57:03;;;;;;;27.58;2.88;;;;;;;24.18;49.06;100240.16;7322365;19;129062;-72
2022/01/21 04:59:29;;;;;;;34.40;2.78;;;;;;;24.15;49.04;100240.44;7322284;19;129030;-72
2022/01/21 05:01:55;;;;;;;23.30;2.03;;;;;;;23.94;49.44;100238.91;7318830;19;128901;-74
2022/01/21 05:04:21;;;;;;;33.00;2.97;;;;;;;23.99;49.62;100247.25;7315136;19;132556;-73
2022/01/21 05:06:48;;;;;;;18.67;1.57;;;;;;;23.75;50.28;100247.63;7311040;19;130714;-74
2022/01/21 05:09:16;;;;;;;19.67;1.73;;;;;;;23.67;50.87;100236.97;7317245;19;129073;-73
2022/01/21 05:11:47;;;;;;;38.85;3.53;;;;;;;23.64;50.85;100247.75;7312822;19;129601;-72
2022/01/21 05:14:22;;;;;;;31.33;2.78;;;;;;;23.45;51.21;100221.50;7318982;19;130074;-73
2022/01/21 05:16:50;;;;;;;32.22;2.63;;;;;;;23.39;51.10;100245.63;7310883;19;129733;-74
2022/01/21 05:19:18;;;;;;;14.13;1.30;;;;;;;23.27;51.92;100243.28;7316180;19;128954;-74
2022/01/21 05:21:46;;;;;;;24.95;2.17;;;;;;;23.19;51.95;100241.28;7316594;19;130143;-71
2022/01/21 05:24:12;;;;;;;25.42;2.30;;;;;;;23.08;52.39;100249.25;7316503;19;129722;-72
2022/01/21 05:26:40;;;;;;;20.73;1.97;;;;;;;23.06;51.93;100253.81;7314470;19;129228;-74
2022/01/21 05:29:11;;;;;;;14.75;1.42;;;;;;;22.93;52.67;100245.34;7316666;19;128812;-74
2022/01/21 05:31:37;;;;;;;25.73;2.28;;;;;;;22.86;53.06;100254.69;7311413;19;129490;-71
2022/01/21 05:34:03;;;;;;;11.83;1.10;;;;;;;22.75;52.89;100244.31;7316218;19;129355;-71
2022/01/21 05:36:30;;;;;;;37.90;2.95;;;;;;;22.71;52.96;100256.03;7312517;19;131939;-73
2022/01/21 05:38:56;;;;;;;27.33;2.58;;;;;;;22.66;53.31;100259.03;7313303;19;128942;-72
2022/01/21 05:41:23;;;;;;;20.08;1.85;;;;;;;22.68;52.78;100256.25;7312581;19;128771;-73
2022/01/21 05:43:49;;;;;;;;;;;;;;;22.55;53.56;100251.25;7316096;19;129531;-71
2022/01/21 05:46:28;;;;;;;17.52;1.67;;;;;;;22.60;53.57;100250.84;7316048;19;132456;-72
2022/01/21 05:48:53;;;;;;;27.27;2.45;;;;;;;22.54;53.78;100254.00;7316660;19;128738;-72
2022/01/21 05:51:21;;;;;;;23.00;2.17;;;;;;;22.53;53.65;100250.53;7314869;19;153223;-72
2022/01/21 05:53:46;;;;;;;37.08;3.13;;;;;;;22.52;53.98;100255.88;7306094;19;131848;-39
2022/01/21 05:56:12;;;;;;;39.30;3.30;;;;;;;22.52;53.31;100253.25;7307499;19;146046;-39
2022/01/21 05:58:38;;;;;;;48.17;3.93;;;;;;;22.50;54.18;100252.56;7309723;19;129447;-42
2022/01/21 06:01:04;;;;;;;30.48;2.75;;;;;;;22.55;53.48;100242.53;7300694;19;129698;-41
2022/01/21 06:03:31;;;;;;;21.13;1.83;;;;;;;22.48;53.45;100249.22;7312422;19;130207;-40
2022/01/21 06:05:56;;;;;;;28.15;2.35;;;;;;;22.48;53.52;100249.22;7304328;19;129813;-40
2022/01/21 06:08:21;;;;;;;27.27;2.15;;;;;;;22.48;53.89;100250.06;7311229;19;129837;-41
2022/01/21 06:10:47;;;;;;;119.55;10.95;;;;;;;22.50;53.62;100252.56;7303147;19;152359;-40
2022/01/21 06:13:17;;;;;;;26.90;2.58;;;;;;;22.48;53.69;100244.81;7310105;19;145498;-40
2022/01/21 06:15:43;;;;;;;37.58;2.95;;;;;;;22.56;53.85;100247.66;7303542;19;130458;-39
2022/01/21 06:18:08;;;;;;;29.10;2.53;;;;;;;22.60;53.52;100237.75;7310979;19;129718;-39
2022/01/21 06:20:34;;;;;;;20.95;1.75;;;;;;;22.65;52.95;100239.03;7302808;19;153963;-40
2022/01/21 06:22:59;;;;;;;21.23;1.65;;;;;;;22.71;53.23;100240.31;7309483;19;158310;-40
2022/01/21 06:25:24;;;;;;;25.30;2.20;;;;;;;22.63;53.22;100242.72;7306644;19;159466;-41
2022/01/21 06:27:50;;;;;;;17.67;1.58;;;;;;;22.57;53.80;100244.09;7309191;19;154672;-41
2022/01/21 06:30:15;;;;;;;29.45;2.60;;;;;;;22.52;53.93;100248.03;7309437;19;153432;-41
2022/01/21 06:32:41;;;;;;;40.50;3.40;;;;;;;22.40;53.41;100230.69;7308471;19;149786;-41
2022/01/21 06:35:08;;;;;;;63.87;5.83;;;;;;;22.54;53.62;100248.75;7302209;19;131173;-41
2022/01/21 06:37:34;;;;;;;15.50;1.63;;;;;;;22.54;53.68;100254.00;7307946;19;129515;-41
2022/01/21 06:39:59;;;;;;;28.25;2.47;;;;;;;;;;7306904;19;153516;-40
2022/01/21 06:42:26;;;;;;;33.10;2.92;;;;;;;22.75;52.67;100246.94;7309999;19;129236;-42
2022/01/21 06:44:51;;;;;;;30.27;2.50;;;;;;;22.72;52.88;100247.19;7309960;19;130360;-39
2022/01/21 06:47:18;;;;;;;31.75;2.58;;;;;;;22.80;52.49;100244.75;7307092;19;129392;-40
2022/01/21 06:49:44;;;;;;;27.05;2.60;;;;;;;22.96;52.36;100255.56;7311667;19;129291;-39
2022/01/21 06:52:09;;;;;;;29.05;2.45;;;;;;;22.98;51.96;100259.72;7309128;19;159054;-38
2022/01/21 06:54:34;;;;;;;27.77;2.45;;;;;;;23.07;51.98;100248.41;7308154;19;158463;-41
2022/01/21 06:56:59;;;;;;;33.05;2.60;;;;;;;23.14;52.05;100259.22;7309013;19;154969;-41
2022/01/21 06:59:25;;;;;;;14.30;1.50;;;;;;;23.10;52.02;100237.69;7309669;19;154122;-40
2022/01/21 07:01:50;;;;;;;29.90;2.65;;;;;;;23.35;51.56;100240.81;7305416;19;158222;-40
2022/01/21 07:04:15;;;;;;;31.27;3.10;;;;;;;23.37;51.40;100254.63;7307354;19;158723;-41
2022/01/21 07:06:40;;;;;;;79.72;7.10;;;;;;;23.47;50.94;100240.53;7306011;19;128893;-41
2022/01/21 07:09:06;;;;;;;29.13;2.55;;;;;;;23.43;51.30;100239.16;7306825;19;152767;-42
2022/01/21 07:11:31;;;;;;;31.17;2.85;;;;;;;23.52;50.92;100243.59;7308802;19;130146;-41
2022/01/21 07:13:57;;;;;;;65.68;5.88;;;;;;;23.55;50.80;100238.06;7302154;19;159022;-40
2022/01/21 07:16:22;;;;;;;450.98;31.33;;;;;;;23.55;50.56;100245.94;7251281;19;155154;-37
2022/01/21 07:18:47;;;;;;;174.27;12.73;;;;;;;23.61;50.60;100242.78;7216622;19;154278;-41
2022/01/21 07:21:12;;;;;;;41.38;3.72;;;;;;;23.66;50.43;100239.75;7304078;19;151001;-41
2022/01/21 07:23:38;;;;;;;21.05;2.00;;;;;;;23.73;50.02;100240.84;7307715;19;158558;-38
2022/01/21 07:26:05;;;;;;;35.30;3.10;;;;;;;23.67;50.27;100228.28;7300646;19;155568;-40
2022/01/21 07:28:31;;;;;;;35.88;2.92;;;;;;;23.75;50.57;100245.00;7307080;19;130319;-41
2022/01/21 07:30:56;;;;;;;34.08;2.83;;;;;;;23.81;50.27;100238.38;7310078;19;129326;-42
2022/01/21 07:33:21;;;;;;;24.37;2.07;;;;;;;23.69;50.72;100242.09;7306815;19;158373;-41
2022/01/21 07:35:47;;;;;;;10.38;1.20;;;;;;;23.64;50.95;100236.41;7306704;19;128910;-39
2022/01/21 07:38:12;;;;;;;25.00;2.17;;;;;;;23.51;50.85;100214.84;7309359;19;129517;-41
2022/01/21 07:40:38;;;;;;;26.77;2.07;;;;;;;23.57;50.43;100233.50;7310026;19;129101;-39
2022/01/21 07:43:04;;;;;;;25.03;2.07;;;;;;;23.56;50.47;100229.25;7309279;19;130369;-41
2022/01/21 07:45:29;;;;;;;21.25;1.88;;;;;;;23.57;51.11;100241.38;7307105;19;129844;-38
2022/01/21 07:47:55;;;;;;;87.38;7.47;;;;;;;23.56;50.95;100247.63;7302406;19;153549;-40
2022/01/21 07:50:20;;;;;;;20.77;1.73;;;;;;;23.54;50.83;100246.91;7269929;19;131042;-41
2022/01/21 07:52:45;;;;;;;36.95;3.45;;;;;;;23.44;47.82;100256.56;7301695;19;155524;-40
2022/01/21 07:55:11;;;;;;;38.17;3.57;;;;;;;23.71;49.26;100246.25;7307100;19;129276;-40
2022/01/21 07:57:36;;;;;;;23.38;2.25;;;;;;;24.24;48.14;100251.91;7306314;19;150419;-41
2022/01/21 08:00:04;;;;;;;21.55;2.10;;;;;;;24.67;47.78;100248.75;7308659;19;159111;-41
2022/01/21 08:02:30;;;;;;;30.98;2.85;;;;;;;25.01;46.76;100244.63;7308609;19;130631;-39
2022/01/21 08:04:57;;;;;;;42.67;3.88;;;;;;;25.29;46.41;100241.00;7310859;19;129775;-39
2022/01/21 08:07:22;;;;;;;22.63;2.15;;;;;;;25.45;46.14;100242.03;7315776;19;129922;-40
2022/01/21 08:09:49;;;;;;;24.25;2.50;;;;;;;25.09;46.39;100237.66;7314097;19;159217;-41
2022/01/21 08:12:16;;;;;;;;;;;;;;;25.68;45.41;100239.81;7316664;19;130933;-41
2022/01/21 08:14:42;;;;;;;27.50;2.67;;;;;;;25.87;45.75;100242.28;7315486;19;129200;-40
2022/01/21 08:17:07;;;;;;;31.47;2.77;;;;;;;25.91;45.43;100242.81;7313672;19;129799;-41
2022/01/21 08:19:32;;;;;;;23.90;2.43;;;;;;;26.14;45.00;100244.88;7315446;19;131161;-40
2022/01/21 08:21:57;;;;;;;27.77;2.20;;;;;;;26.32;44.85;100250.09;7314997;19;129566;-41
2022/01/21 08:24:23;;;;;;;36.57;3.20;;;;;;;26.23;44.74;100243.13;7313026;19;154361;-40
2022/01/21 08:26:48;;;;;;;36.20;2.83;;;;;;;26.41;44.27;100241.25;7311008;19;154822;-41
2022/01/21 08:29:14;;;;;;;35.60;3.40;;;;;;;26.12;45.51;100238.91;7313168;19;157270;-41
2022/01/21 08:31:39;;;;;;;37.20;3.38;;;;;;;26.31;44.80;100256.34;7314669;19;131358;-41
2022/01/21 08:34:04;;;;;;;24.70;1.98;;;;;;;26.08;45.52;100234.91;7315000;19;131436;-41
2022/01/21 08:36:30;;;;;;;23.92;2.25;;;;;;;25.82;46.55;100255.09;7314337;19;129022;-40
2022/01/21 08:38:55;;;;;;;32.10;3.10;;;;;;;25.80;46.51;100257.03;7311837;19;158415;-39
2022/01/21 08:41:21;;;;;;;24.58;2.05;;;;;;;25.64;46.50;100256.88;7315115;19;129731;-41
2022/01/21 08:43:46;;;;;;;31.73;2.87;;;;;;;25.57;47.40;100261.09;7313895;19;129093;-40
2022/01/21 08:46:12;;;;;;;32.37;3.07;;;;;;;25.49;47.42;100263.66;7313650;19;130717;-41
2022/01/21 08:48:37;;;;;;;27.13;2.53;;;;;;;25.45;47.32;100262.31;7313683;19;152068;-38
2022/01/21 08:51:09;;;;;;;19.73;2.10;;;;;;;25.55;47.63;100257.81;7314236;19;131104;-40
2022/01/21 08:53:39;;;;;;;29.55;2.78;;;;;;;25.49;47.35;100268.91;7315041;19;129059;-42
2022/01/21 08:56:11;;;;;;;36.40;3.53;;;;;;;25.27;37.89;100264.84;7311766;19;129066;-41
2022/01/21 08:58:37;;;;;;;40.05;4.00;;;;;;;25.24;36.41;100272.22;7312986;19;129126;-41
2022/01/21 09:01:03;;;;;;;25.77;2.83;;;;;;;25.09;36.84;100260.53;7315065;19;130641;-41
2022/01/21 09:03:29;;;;;;;26.90;2.60;;;;;;;25.14;36.97;100255.66;7313804;19;129596;-38
2022/01/21 09:05:54;;;;;;;37.73;3.90;;;;;;;25.30;38.80;100256.66;7309914;19;130099;-38
2022/01/21 09:08:23;;;;;;;25.37;2.33;;;;;;;25.48;39.98;100268.09;7313282;19;130567;-38
2022/01/21 09:10:49;;;;;;;30.80;2.85;;;;;;;25.82;40.70;100268.25;7314158;19;129595;-39
2022/01/21 09:13:14;;;;;;;34.47;3.40;;;;;;;26.00;41.26;100269.06;7314275;19;130169;-40
2022/01/21 09:15:39;;;;;;;22.83;2.33;;;;;;;26.04;41.67;100267.84;7310472;19;154937;-39
2022/01/21 09:18:05;;;;;;;20.85;2.38;;;;;;;26.18;41.16;100269.13;7313448;19;129509;-39
2022/01/21 09:20:35;;;;;;;27.13;2.60;;;;;;;26.23;42.35;100277.38;7314734;19;130771;-39
2022/01/21 09:23:01;;;;;;;28.25;2.75;;;;;;;26.42;41.72;100264.00;7313131;19;129194;-37
2022/01/21 09:25:26;;;;;;;20.63;1.93;;;;;;;26.45;42.38;100240.78;7310669;19;129418;-41
2022/01/21 09:27:52;;;;;;;23.13;3.00;;;;;;;26.54;42.25;100258.31;7312492;19;129208;-38
2022/01/21 09:30:17;;;;;;;28.30;2.92;;;;;;;26.48;42.85;100243.13;7313072;19;146872;-39
2022/01/21 09:32:43;;;;;;;32.40;3.30;;;;;;;26.35;42.71;100253.25;7312409;19;129108;-40
2022/01/21 09:35:10;;;;;;;63.63;6.07;;;;;;;26.40;42.83;100245.69;7310460;19;130312;-39
2022/01/21 09:37:35;;;;;;;27.15;2.85;;;;;;;26.32;43.66;100245.66;7312284;19;130211;-38
2022/01/21 09:40:01;;;;;;;41.63;4.00;;;;;;;26.28;43.87;100241.66;7312118;19;130332;-41
2022/01/21 09:42:27;;;;;;;28.80;3.00;;;;;;;26.10;43.78;100248.78;7314340;19;130132;-38
2022/01/21 09:44:52;;;;;;;37.20;3.57;;;;;;;25.79;44.60;100242.22;7311762;19;130105;-38
2022/01/21 09:47:19;;;;;;;28.23;2.77;;;;;;;25.60;45.34;100240.56;7313258;19;130305;-38
2022/01/21 09:49:45;;;;;;;20.48;2.25;;;;;;;25.57;46.02;100250.56;7313386;19;130636;-38
2022/01/21 09:52:13;;;;;;;33.30;3.50;;;;;;;25.54;46.46;100250.88;7313473;19;129339;-38
2022/01/21 09:54:45;;;;;;;22.23;2.20;;;;;;;25.56;46.16;100244.47;7312223;19;129028;-39
2022/01/21 09:57:16;;;;;;;21.73;2.22;;;;;;;25.58;46.10;100245.13;7312182;19;130381;-39
2022/01/21 09:59:42;;;;;;;14.80;1.98;;;;;;;25.68;45.91;100253.00;7312441;19;129574;-39
2022/01/21 10:02:09;;;;;;;29.23;2.93;;;;;;;25.83;45.70;100243.59;7312192;19;128876;-39
2022/01/21 10:04:38;;;;;;;30.65;2.97;;;;;;;25.90;45.62;100241.97;7312383;19;131488;-37
2022/01/21 10:07:04;;;;;;;30.85;3.05;;;;;;;25.94;45.08;100222.25;7312538;19;129680;-38
2022/01/21 10:09:30;;;;;;;29.90;2.95;;;;;;;25.89;45.88;100218.44;7312631;19;130837;-40
2022/01/21 10:11:58;;;;;;;31.87;3.10;;;;;;;26.14;45.48;100228.22;7312244;19;128902;-39
2022/01/21 10:14:25;;;;;;;18.42;2.17;;;;;;;26.22;44.66;100218.56;7312901;19;128934;-38
2022/01/21 10:16:52;;;;;;;28.80;2.55;;;;;;;26.15;45.33;100227.22;7311465;19;130311;-37
2022/01/21 10:19:29;;;;;;;43.95;3.95;;;;;;;26.26;45.51;100235.69;7308642;19;129387;-38
2022/01/21 10:22:06;;;;;;;30.17;3.10;;;;;;;26.30;44.98;100229.16;7311195;19;129424;-38
2022/01/21 10:24:33;;;;;;;22.67;2.30;;;;;;;26.32;45.18;100221.94;7311760;19;128810;-39
2022/01/21 10:27:00;;;;;;;24.00;2.63;;;;;;;26.26;45.24;100222.53;7310458;19;130001;-39
2022/01/21 10:29:35;;;;;;;29.30;2.83;;;;;;;26.46;44.95;100221.34;7312667;19;129761;-38
2022/01/21 10:32:02;;;;;;;25.17;2.15;;;;;;;26.58;44.99;100228.00;7311639;19;129325;-43
2022/01/21 10:34:38;;;;;;;40.58;3.63;;;;;;;26.51;44.81;100229.59;7309797;19;129023;-40
2022/01/21 10:37:20;;;;;;;29.57;2.90;;;;;;;26.71;44.07;100232.88;7312045;19;131031;-38
2022/01/21 10:39:56;;;;;;;32.83;3.35;;;;;;;26.64;44.66;100231.84;7309095;19;129217;-39
2022/01/21 10:42:23;;;;;;;20.85;2.42;;;;;;;26.69;44.97;100227.75;7312228;19;129183;-42
2022/01/21 10:44:49;;;;;;;;;;;;;;;26.70;44.38;100237.34;7309506;19;129509;-39
2022/01/21 10:47:15;;;;;;;32.17;3.05;;;;;;;26.59;44.39;100237.56;7310944;19;130790;-40
2022/01/21 10:49:42;;;;;;;11.57;1.40;;;;;;;26.35;45.41;100232.16;7310789;19;157957;-39
2022/01/21 10:52:09;;;;;;;30.05;2.50;;;;;;;26.26;45.12;100238.34;7311151;19;129388;-39
2022/01/21 10:54:40;;;;;;;;;;;;;;;26.17;46.11;100234.00;7311942;19;129266;-42
2022/01/21 10:57:10;;;;;;;16.92;2.00;;;;;;;25.93;46.29;100241.69;7311228;19;130147;-39
2022/01/21 10:59:59;;;;;;;28.58;2.65;;;;;;;25.91;46.73;100243.66;7307949;19;130488;-39
2022/01/21 11:02:49;;;;;;;24.42;2.22;;;;;;;25.96;46.71;100251.09;7311734;19;128922;-38
2022/01/21 11:05:21;;;;;;;37.25;3.85;;;;;;;25.96;46.79;100236.13;7308204;19;130899;-39
2022/01/21 11:07:57;;;;;;;45.13;3.92;;;;;;;25.94;46.42;100240.72;7310321;19;130883;-39
2022/01/21 11:10:32;;;;;;;22.73;2.10;;;;;;;25.92;47.29;100242.66;7310405;19;130978;-39
2022/01/21 11:13:23;;;;;;;16.70;1.83;;;;;;;25.98;46.94;100234.13;7311732;19;129223;-38
2022/01/21 11:15:57;;;;;;;28.27;2.45;;;;;;;25.95;46.51;100239.72;7304696;19;141763;-40
2022/01/21 11:18:25;;;;;;;28.92;2.70;;;;;;;25.98;47.14;100217.53;7309475;19;131072;-39
2022/01/21 11:20:59;;;;;;;40.65;3.20;;;;;;;26.02;46.97;100227.63;7308860;19;130822;-39
2022/01/21 11:23:27;;;;;;;25.42;2.45;;;;;;;26.25;45.95;100241.97;7310859;19;129477;-39
2022/01/21 11:25:56;;;;;;;19.65;2.03;;;;;;;26.25;46.18;100236.69;7305808;19;129372;-38
2022/01/21 11:28:24;;;;;;;21.60;2.13;;;;;;;26.30;46.35;100237.06;7310492;19;130173;-38
2022/01/21 11:30:50;;;;;;;34.30;3.10;;;;;;;26.40;46.27;100236.94;7309121;19;129399;-39
2022/01/21 11:33:16;;;;;;;25.45;2.30;;;;;;;26.47;46.03;100241.47;7308826;19;128828;-39
2022/01/21 11:35:41;;;;;;;35.20;3.50;;;;;;;26.44;39.04;100231.25;7304363;19;129423;-39
2022/01/21 11:38:09;;;;;;;10.70;1.87;;;;;;;26.33;33.92;100233.31;7309658;19;130180;-39
2022/01/21 11:40:35;;;;;;;56.85;5.25;;;;;;;26.32;34.66;100227.19;7315691;19;129700;-39
2022/01/21 11:43:03;;;;;;;31.13;2.97;;;;;;;26.23;35.37;100222.84;7316833;19;128961;-40
2022/01/21 11:48:49;;;;;;;29.03;2.90;;;;;;;26.11;37.06;100229.38;7314841;19;158386;-38
2022/01/21 11:50:52;;;;;;;18.58;2.42;;;;;;;26.12;36.51;100212.56;7314250;19;130225;-39
2022/01/21 11:53:43;;;;;;;22.90;2.50;;;;;;;26.05;36.90;100219.41;7316000;19;132630;-39
2022/01/21 11:56:34;;;;;;;23.42;2.50;;;;;;;26.01;37.23;100220.72;7314737;19;129402;-40
2022/01/21 11:59:34;;;;;;;29.13;2.90;;;;;;;25.90;37.39;100220.91;7315577;19;129583;-41